Cheltenham, PA (19012)

2:32 PM EDT on August 04, 2015 (GMT -0400)
Keswick Village | | Change Station
CLOSE
Current Station
Personal Weather Station
Location: Glenside, PA
Elevation: 256 ft
Nearby Weather Stations

Elev 256 ft 40.10 °N, 75.15 °W | Updated 6 seconds ago

Partly Cloudy
Partly Cloudy
86.9 °F
Feels Like 87 °F
N
8.9
Wind Variable Wind from WSW
Gusts 15.0 mph

Today
High -- | Low -- °F
--% Chance of Precip.
Yesterday
High -- | Low -- °F
Precip. -- in
6:01 AM 8:11 PM
Waning Gibbous, 75% visible
Pressure 29.88 in
Visibility 10.0 miles
Clouds Few 5000 ft
Scattered Clouds 6000 ft
Scattered Clouds 7500 ft
Heat Index 87 °F
Dew Point 61 °F
Humidity 42%
Rainfall 0.00 in
Snow Depth Not available.
UV 3.0 out of 12
Pollen 7.30 out of 12
Air Quality Not available.
Flu Activity Not available.
METAR KPNE 041754Z AUTO 30014G22KT 10SM FEW050 SCT060 SCT075 33/14 A2989 RMK AO2 SLP119 T03280144 10333 20239 55005 TSNO

More Conditions Fewer Conditions

Pressure 29.88 in
Visibility 10.0 miles
Clouds Few 5000 ft
Scattered Clouds 6000 ft
Scattered Clouds 7500 ft
Heat Index 87 °F
Dew Point 61 °F
Humidity 42%
Rainfall 0.00 in
Snow Depth Not available.
UV 3.0 out of 12
Pollen 7.30 out of 12
Air Quality Not available.
Flu Activity Not available.
METAR KPNE 041754Z AUTO 30014G22KT 10SM FEW050 SCT060 SCT075 33/14 A2989 RMK AO2 SLP119 T03280144 10333 20239 55005 TSNO

More Conditions Fewer Conditions

10-Day Weather Forecast

×

Almanac

Astronomy

Aug. 04, 2015 Rise Set
Actual Time
Civil Twilight
Nautical Twilight
Astronomical Twilight
Moon
Length of Visible Light
Length of Day
Tomorrow will be .
, % of the Moon is Illuminated

Today's Extremes

State Highs State Lows

Community

WunderPhotos

Upload Photos

1,843,937 photos uploaded!

WunderBlogs® & News

Nearby

Air Quality

  Air Quality AQ Index Pollutant
Not available.

Snow Depth

Station Depth Elevation

Earthquake Activity

City Distance Mag. Time & Date
Minimum magnitude displayed is 2.5.

Coastal Water Temperatures

Place Temperature

Stations

Nearby Weather Stations

Station Location Temp. Windchill Dew Point Humidity Wind Precip. Elev Updated Type